Time;durP1;ratioP1;P1;durP2;ratioP2;P2;SDS_P1;SDS_P2;PMS_P1;PMS_P2;Temp;Humidity;BMP_temperature;BMP_pressure;BME280_temperature;BME280_humidity;BME280_pressure;Samples;Min_cycle;Max_cycle;Signal;HPM_P1;HPM_P2
2023/12/19 00:00:07;;;;;;;7.25;3.53;;;0.70;99.90;;;;;;4978493;28;20203;-85
2023/12/19 00:02:33;;;;;;;6.25;3.80;;;0.70;99.90;;;;;;4997170;28;20194;-85
2023/12/19 00:04:58;;;;;;;3.23;2.90;;;0.70;99.90;;;;;;4997464;28;20245;-85
2023/12/19 00:07:24;;;;;;;1.80;1.60;;;0.60;99.90;;;;;;4979577;28;20418;-84
2023/12/19 00:09:49;;;;;;;6.87;3.50;;;0.60;99.90;;;;;;4996220;28;20171;-84
2023/12/19 00:12:15;;;;;;;8.17;3.53;;;0.60;99.90;;;;;;4996557;28;20223;-85
2023/12/19 00:14:40;;;;;;;5.60;2.33;;;0.50;99.90;;;;;;4993306;28;20251;-85
2023/12/19 00:17:06;;;;;;;2.10;1.63;;;0.40;99.90;;;;;;4997654;28;20625;-84
2023/12/19 00:19:32;;;;;;;3.77;2.33;;;0.50;99.90;;;;;;5002195;28;20179;-84
2023/12/19 00:21:57;;;;;;;3.00;1.73;;;0.40;99.90;;;;;;5010222;28;20204;-84
2023/12/19 00:24:23;;;;;;;2.23;1.50;;;0.40;99.90;;;;;;5016156;28;20194;-85
2023/12/19 00:26:48;;;;;;;2.40;1.80;;;0.40;99.90;;;;;;4998118;28;20607;-86
2023/12/19 00:29:14;;;;;;;4.53;2.60;;;0.50;99.90;;;;;;5015919;28;20187;-85
2023/12/19 00:31:40;;;;;;;3.03;1.90;;;0.70;99.90;;;;;;4999330;28;20687;-85
2023/12/19 00:34:05;;;;;;;2.20;1.60;;;0.80;99.90;;;;;;4999672;28;20202;-86
2023/12/19 00:36:31;;;;;;;3.60;2.37;;;0.70;99.90;;;;;;4999733;28;20265;-86
2023/12/19 00:38:56;;;;;;;1.90;1.60;;;0.50;99.90;;;;;;5015518;28;20206;-85
2023/12/19 00:41:22;;;;;;;4.90;2.87;;;0.30;99.90;;;;;;5016701;28;20234;-86
2023/12/19 00:43:47;;;;;;;6.03;2.17;;;0.40;99.90;;;;;;5019877;28;20200;-85
2023/12/19 00:46:13;;;;;;;4.17;2.40;;;0.40;99.90;;;;;;5020141;28;20170;-85
2023/12/19 00:48:39;;;;;;;3.93;3.53;;;0.50;99.90;;;;;;5002090;28;20616;-85
2023/12/19 00:51:10;;;;;;;4.80;4.03;;;0.50;99.90;;;;;;5019545;28;20217;-84
2023/12/19 00:53:36;;;;;;;3.63;3.40;;;0.30;99.90;;;;;;5020290;28;20934;-86
2023/12/19 00:56:02;;;;;;;3.20;2.90;;;0.00;99.90;;;;;;5003630;28;20169;-86
2023/12/19 00:58:27;;;;;;;3.83;3.00;;;-1.00;99.90;;;;;;5003218;28;20630;-86
2023/12/19 01:00:53;;;;;;;2.70;2.03;;;-0.40;99.90;;;;;;5018921;28;20220;-85
2023/12/19 01:03:19;;;;;;;3.07;2.80;;;-0.40;99.90;;;;;;5001547;28;20198;-85
2023/12/19 01:05:50;;;;;;;9.33;5.20;;;-0.40;99.90;;;;;;5020169;28;20190;-85
2023/12/19 01:08:16;;;;;;;8.05;4.40;;;-0.50;99.90;;;;;;5002956;28;20171;-86
2023/12/19 01:10:41;;;;;;;10.07;4.57;;;-0.60;99.90;;;;;;5003133;28;20199;-86
2023/12/19 01:13:07;;;;;;;5.07;3.97;;;-0.50;99.90;;;;;;5002131;28;20200;-85
2023/12/19 01:15:32;;;;;;;10.30;5.33;;;-0.60;99.90;;;;;;5019724;28;20202;-84
2023/12/19 01:17:58;;;;;;;11.63;4.90;;;-0.60;99.90;;;;;;5020226;28;20187;-84
2023/12/19 01:20:23;;;;;;;3.37;3.07;;;-0.60;99.90;;;;;;5018454;28;20182;-84
2023/12/19 01:22:49;;;;;;;5.00;3.03;;;-0.60;99.90;;;;;;5003388;28;20178;-85
2023/12/19 01:25:14;;;;;;;6.17;3.43;;;-0.50;99.90;;;;;;4999281;28;20191;-85
2023/12/19 01:27:40;;;;;;;7.57;4.77;;;-0.50;99.90;;;;;;5016070;28;20183;-85
2023/12/19 01:30:06;;;;;;;6.43;3.27;;;-0.50;99.90;;;;;;5003070;28;20171;-85
2023/12/19 01:32:32;;;;;;;5.45;3.80;;;-0.40;99.90;;;;;;5020969;28;20237;-85
2023/12/19 01:34:57;;;;;;;4.37;2.37;;;-0.50;99.90;;;;;;5018421;28;20210;-85
2023/12/19 01:37:23;;;;;;;1.70;1.60;;;-0.60;99.90;;;;;;5003304;28;20833;-85
2023/12/19 01:39:48;;;;;;;2.57;2.03;;;-0.40;99.90;;;;;;5004689;28;20185;-86
2023/12/19 01:42:14;;;;;;;11.60;2.10;;;-0.40;99.90;;;;;;5000877;28;20175;-86
2023/12/19 01:44:39;;;;;;;4.07;2.60;;;-0.40;99.90;;;;;;5030092;28;20297;-85
2023/12/19 01:47:05;;;;;;;5.20;3.77;;;-0.30;99.90;;;;;;5021574;28;20239;-85
2023/12/19 01:49:31;;;;;;;12.00;3.53;;;-0.30;99.90;;;;;;5019902;28;20183;-85
2023/12/19 01:51:57;;;;;;;6.77;4.00;;;-0.10;99.90;;;;;;5021387;28;20199;-85
2023/12/19 01:54:23;;;;;;;9.13;6.85;;;;;;;;;;5018987;28;20486;-85
2023/12/19 01:56:49;;;;;;;6.93;4.05;;;;;;;;;;5020284;28;20175;-85
2023/12/19 01:59:15;;;;;;;5.50;4.18;;;-0.80;99.90;;;;;;5003284;28;20212;-85
2023/12/19 02:01:41;;;;;;;4.30;4.00;;;;;;;;;;5006145;28;20174;-86
2023/12/19 02:04:09;;;;;;;8.52;3.58;;;-0.90;99.90;;;;;;5000585;28;20232;-86
2023/12/19 02:06:35;;;;;;;9.52;6.00;;;-0.90;99.90;;;;;;5018164;28;20166;-86
2023/12/19 02:09:01;;;;;;;7.63;4.23;;;;;;;;;;5016645;28;20201;-86
2023/12/19 02:11:28;;;;;;;2.60;2.25;;;-0.90;99.90;;;;;;4995822;28;20199;-85
2023/12/19 02:13:56;;;;;;;4.05;3.03;;;-0.90;99.90;;;;;;5016524;28;20214;-86
2023/12/19 02:16:21;;;;;;;4.25;2.85;;;-1.00;99.90;;;;;;5001980;28;20212;-87
2023/12/19 02:19:00;;;;;;;9.57;3.70;;;-1.00;99.90;;;;;;5005728;28;20180;-87
2023/12/19 02:21:25;;;;;;;6.75;3.58;;;-1.00;99.90;;;;;;4982376;28;20202;-87
2023/12/19 02:23:51;;;;;;;16.87;4.57;;;-1.00;99.90;;;;;;4983211;28;20199;-86
2023/12/19 02:26:16;;;;;;;4.40;3.83;;;-1.00;99.90;;;;;;4987613;28;20183;-86
2023/12/19 02:28:42;;;;;;;5.30;3.67;;;-1.00;99.90;;;;;;4983175;28;20616;-86
2023/12/19 02:31:08;;;;;;;7.17;3.97;;;1.80;99.90;;;;;;4982978;28;20692;-87
2023/12/19 02:33:33;;;;;;;3.00;2.37;;;-1.00;99.90;;;;;;4982650;28;21031;-86
2023/12/19 02:35:59;;;;;;;10.93;3.60;;;-0.80;99.90;;;;;;5000092;28;20228;-87
2023/12/19 02:38:24;;;;;;;4.90;3.70;;;-0.70;99.90;;;;;;4999128;28;20175;-87
2023/12/19 02:40:50;;;;;;;4.53;4.13;;;-0.80;99.90;;;;;;4981485;28;20648;-88
2023/12/19 02:43:15;;;;;;;7.50;4.40;;;-0.70;99.90;;;;;;4998670;28;20164;-88
2023/12/19 02:45:41;;;;;;;10.93;4.80;;;-0.70;99.90;;;;;;4999517;28;20234;-87
2023/12/19 02:48:06;;;;;;;14.07;6.03;;;-0.80;99.90;;;;;;4981960;28;20172;-87
2023/12/19 02:50:43;;;;;;;4.77;3.77;;;-0.80;99.90;;;;;;4998928;28;20221;-88
2023/12/19 02:53:09;;;;;;;5.05;3.00;;;-0.80;99.90;;;;;;4981530;28;20637;-88
2023/12/19 02:55:35;;;;;;;2.33;1.03;;;-1.00;99.90;;;;;;4998969;28;20243;-87
2023/12/19 02:58:01;;;;;;;1.30;1.20;;;;;;;;;;4983291;28;20223;-85
2023/12/19 03:00:27;;;;;;;2.28;1.33;;;;;;;;;;4984287;28;20211;-87
2023/12/19 03:02:53;;;;;;;3.85;3.03;;;;;;;;;;4984053;28;20198;-87
2023/12/19 03:05:19;;;;;;;5.47;3.22;;;;;;;;;;5000042;28;20194;-87
2023/12/19 03:07:45;;;;;;;4.65;3.03;;;;;;;;;;4983968;28;20286;-88
2023/12/19 03:10:11;;;;;;;2.80;2.03;;;;;;;;;;4983295;28;20171;-87
2023/12/19 03:12:37;;;;;;;2.03;1.83;;;;;;;;;;4982947;28;20469;-88
2023/12/19 03:15:09;;;;;;;4.53;3.30;;;-1.00;99.90;;;;;;4980991;28;20225;-86
2023/12/19 03:17:35;;;;;;;2.53;1.90;;;;;;;;;;4981577;28;20175;-87
2023/12/19 03:20:00;;;;;;;3.60;2.95;;;-0.90;99.90;;;;;;4999192;28;20632;-85
2023/12/19 03:22:26;;;;;;;5.03;2.93;;;;;;;;;;5000848;28;20183;-85
2023/12/19 03:24:52;;;;;;;9.63;3.57;;;-0.80;99.90;;;;;;5000910;28;20205;-84
2023/12/19 03:27:17;;;;;;;1.90;1.80;;;-0.70;99.90;;;;;;4994845;28;20929;-85
2023/12/19 03:29:43;;;;;;;2.33;2.10;;;-0.80;99.90;;;;;;5014565;28;20693;-85
2023/12/19 03:32:08;;;;;;;2.97;1.40;;;-0.80;99.90;;;;;;5003454;28;20310;-84
2023/12/19 03:34:37;;;;;;;3.23;2.50;;;-0.70;99.90;;;;;;5013442;28;20198;-84
2023/12/19 03:37:03;;;;;;;3.75;3.40;;;-0.50;99.90;;;;;;4998071;28;20211;-85
2023/12/19 03:39:29;;;;;;;5.05;3.60;;;-0.50;99.90;;;;;;5015185;28;20187;-84
2023/12/19 03:41:54;;;;;;;7.90;2.00;;;-0.40;99.90;;;;;;5018864;28;20238;-85
2023/12/19 03:44:20;;;;;;;1.83;1.73;;;;;;;;;;5014302;28;20222;-84
2023/12/19 03:46:46;;;;;;;3.27;2.40;;;-0.70;99.90;;;;;;5016355;28;20175;-83
2023/12/19 03:49:12;;;;;;;2.70;1.00;;;-0.80;99.90;;;;;;5011197;28;20452;-84
2023/12/19 03:51:38;;;;;;;4.43;2.43;;;-0.80;99.90;;;;;;5017896;28;20219;-85
2023/12/19 03:54:03;;;;;;;4.13;2.00;;;-0.80;99.90;;;;;;5000262;28;20197;-85
2023/12/19 03:56:29;;;;;;;2.87;2.40;;;-0.90;99.90;;;;;;5014922;28;20582;-87
2023/12/19 03:58:54;;;;;;;2.10;1.47;;;-0.90;99.90;;;;;;5011796;28;20170;-87
2023/12/19 04:01:20;;;;;;;5.40;2.30;;;-0.90;99.90;;;;;;5008920;28;20179;-87
2023/12/19 04:03:46;;;;;;;12.48;9.15;;;-0.90;99.90;;;;;;5013643;28;20285;-87
2023/12/19 04:06:12;;;;;;;2.30;2.17;;;-0.60;99.90;;;;;;4994409;28;20191;-88
2023/12/19 04:08:38;;;;;;;2.95;2.30;;;-0.60;99.90;;;;;;5012091;28;20225;-87
2023/12/19 04:11:03;;;;;;;3.13;1.47;;;-0.70;99.90;;;;;;4998917;28;20269;-86
2023/12/19 04:13:30;;;;;;;1.53;1.43;;;-0.70;99.90;;;;;;4992575;28;20187;-87
2023/12/19 04:15:55;;;;;;;4.00;2.90;;;-0.70;99.90;;;;;;5007651;28;20193;-88
2023/12/19 04:18:21;;;;;;;2.17;1.60;;;-0.70;99.90;;;;;;4997097;28;20171;-87
2023/12/19 04:20:46;;;;;;;2.90;2.57;;;-0.60;99.90;;;;;;5009513;28;20194;-88
2023/12/19 04:23:12;;;;;;;5.03;3.00;;;-0.70;99.90;;;;;;4993827;28;20201;-87
2023/12/19 04:25:38;;;;;;;3.30;1.83;;;-0.70;99.90;;;;;;5013219;28;20187;-88
2023/12/19 04:28:04;;;;;;;3.35;3.05;;;-0.80;99.90;;;;;;5012074;28;20594;-88
2023/12/19 04:30:29;;;;;;;4.03;2.83;;;-0.90;99.90;;;;;;4995660;28;20186;-88
2023/12/19 04:32:55;;;;;;;2.03;1.40;;;-0.90;99.90;;;;;;5013825;28;20186;-88
2023/12/19 04:35:20;;;;;;;2.07;1.83;;;-1.00;99.90;;;;;;5013177;28;20214;-87
2023/12/19 04:37:46;;;;;;;3.97;1.80;;;-1.00;99.90;;;;;;4995278;28;20190;-88
2023/12/19 04:40:12;;;;;;;2.83;1.50;;;-1.00;99.90;;;;;;4992899;28;20190;-88
2023/12/19 04:42:38;;;;;;;7.80;3.90;;;-1.00;99.90;;;;;;5013876;28;20221;-88
2023/12/19 04:45:05;;;;;;;2.73;1.60;;;-1.00;99.90;;;;;;4999101;28;20202;-88
2023/12/19 04:47:30;;;;;;;7.57;2.28;;;-0.90;99.90;;;;;;5015225;28;20238;-88
2023/12/19 04:49:56;;;;;;;4.33;2.70;;;-1.00;99.90;;;;;;4999128;28;20187;-87
2023/12/19 04:52:21;;;;;;;5.33;2.33;;;-1.10;99.90;;;;;;5080252;28;20194;-89
2023/12/19 04:54:47;;;;;;;2.40;2.20;;;-1.00;99.90;;;;;;4997620;28;20251;-89
2023/12/19 04:57:12;;;;;;;7.70;4.17;;;-0.90;99.90;;;;;;5014441;28;20281;-89
2023/12/19 04:59:38;;;;;;;6.13;3.40;;;-0.80;99.90;;;;;;4997094;28;20175;-88
2023/12/19 05:02:03;;;;;;;5.10;4.43;;;0.20;99.90;;;;;;4996659;28;20183;-89
2023/12/19 05:04:32;;;;;;;4.57;3.87;;;-0.80;99.90;;;;;;4993518;28;20696;-88
2023/12/19 05:06:57;;;;;;;3.33;2.20;;;-0.70;99.90;;;;;;5015660;28;20183;-89
2023/12/19 05:09:23;;;;;;;5.67;2.23;;;-0.80;99.90;;;;;;5014433;28;20580;-88
2023/12/19 05:11:49;;;;;;;3.40;3.10;;;-0.70;99.90;;;;;;4995257;28;20563;-88
2023/12/19 05:14:14;;;;;;;17.77;3.57;;;-0.80;99.90;;;;;;5000159;28;20557;-88
2023/12/19 05:16:40;;;;;;;3.03;2.40;;;-0.80;99.90;;;;;;4995836;28;20194;-88
2023/12/19 05:19:05;;;;;;;3.20;1.90;;;-0.70;99.90;;;;;;5016824;28;20179;-88
2023/12/19 05:21:38;;;;;;;2.77;2.57;;;-0.70;99.90;;;;;;5016464;28;20207;-87
2023/12/19 05:24:04;;;;;;;3.20;2.05;;;-0.70;99.90;;;;;;4997044;28;20223;-89
2023/12/19 05:26:30;;;;;;;3.50;2.03;;;-0.70;99.90;;;;;;5008579;28;20821;-88
2023/12/19 05:28:55;;;;;;;3.10;1.90;;;-0.70;99.90;;;;;;4996395;28;20189;-87
2023/12/19 05:31:21;;;;;;;8.83;3.30;;;-0.80;99.90;;;;;;4996025;28;20195;-87
2023/12/19 05:33:47;;;;;;;5.72;2.85;;;-0.90;99.90;;;;;;5010873;28;20202;-88
2023/12/19 05:36:14;;;;;;;3.27;2.97;;;-1.00;99.90;;;;;;4996187;28;20167;-87
2023/12/19 05:38:39;;;;;;;4.18;1.92;;;-0.80;99.90;;;;;;4996975;28;20751;-86
2023/12/19 05:41:05;;;;;;;5.13;2.90;;;-0.80;99.90;;;;;;5010551;28;20222;-82
2023/12/19 05:43:31;;;;;;;3.30;2.63;;;-0.90;99.90;;;;;;5010170;28;20179;-86
2023/12/19 05:45:57;;;;;;;3.25;2.80;;;-0.90;99.90;;;;;;5012577;28;20697;-85
2023/12/19 05:48:22;;;;;;;2.50;2.03;;;-1.00;99.90;;;;;;4996718;28;20217;-83
2023/12/19 05:50:49;;;;;;;2.47;2.27;;;-1.00;99.90;;;;;;5009149;28;21171;-84
2023/12/19 05:53:14;;;;;;;9.07;3.72;;;-1.10;99.90;;;;;;5010786;28;20927;-84
2023/12/19 05:55:42;;;;;;;5.33;3.37;;;-1.10;99.90;;;;;;4993900;28;20182;-84
2023/12/19 05:58:08;;;;;;;4.07;2.47;;;-1.10;99.90;;;;;;4991195;28;20444;-83
2023/12/19 06:00:34;;;;;;;7.88;3.15;;;-1.10;99.90;;;;;;5005630;28;20258;-85
2023/12/19 06:02:59;;;;;;;7.73;4.90;;;-1.10;99.90;;;;;;4997968;28;20178;-84
2023/12/19 06:05:25;;;;;;;12.37;6.10;;;-1.10;99.90;;;;;;4993051;28;20187;-85
2023/12/19 06:07:50;;;;;;;7.07;5.63;;;-1.10;99.90;;;;;;5007464;28;20198;-84
2023/12/19 06:10:16;;;;;;;9.10;2.53;;;-1.00;99.90;;;;;;5007157;28;20813;-85
2023/12/19 06:12:41;;;;;;;3.70;2.60;;;-1.00;99.90;;;;;;4993832;28;20282;-85
2023/12/19 06:15:12;;;;;;;2.40;2.20;;;-1.00;99.90;;;;;;4991962;28;20776;-84
2023/12/19 06:17:42;;;;;;;10.43;3.25;;;-0.90;99.90;;;;;;5011527;28;20277;-84
2023/12/19 06:20:12;;;;;;;4.35;3.45;;;-1.00;99.90;;;;;;5012569;28;20183;-84
2023/12/19 06:22:38;;;;;;;4.65;3.38;;;-0.90;99.90;;;;;;5007726;28;20209;-84
2023/12/19 06:25:06;;;;;;;2.28;1.73;;;-1.00;99.90;;;;;;5009497;28;20222;-84
2023/12/19 06:27:32;;;;;;;14.38;3.03;;;-1.30;99.90;;;;;;5009168;28;20213;-84
2023/12/19 06:29:58;;;;;;;3.15;2.40;;;-1.30;99.90;;;;;;5009824;28;20270;-85
2023/12/19 06:32:24;;;;;;;3.43;3.13;;;-1.10;99.90;;;;;;5007436;28;20281;-85
2023/12/19 06:34:49;;;;;;;11.90;4.57;;;-1.00;99.90;;;;;;5010130;28;20234;-84
2023/12/19 06:37:15;;;;;;;8.17;3.43;;;-1.00;99.90;;;;;;4989204;28;20574;-84
2023/12/19 06:39:40;;;;;;;9.30;6.33;;;-1.00;99.90;;;;;;5010670;28;20687;-85
2023/12/19 06:42:06;;;;;;;6.20;5.10;;;-0.90;99.90;;;;;;5010761;28;20194;-85
2023/12/19 06:44:32;;;;;;;8.83;4.60;;;-0.80;99.90;;;;;;5009612;28;20628;-84
2023/12/19 06:46:57;;;;;;;4.77;3.37;;;-0.80;99.90;;;;;;5009497;28;20178;-84
2023/12/19 06:49:24;;;;;;;13.37;5.00;;;-0.70;99.90;;;;;;4994683;28;20207;-84
2023/12/19 06:51:51;;;;;;;16.38;7.93;;;-0.80;99.90;;;;;;5009899;28;20215;-84
2023/12/19 06:54:16;;;;;;;5.22;3.55;;;-0.80;99.90;;;;;;5008552;28;20202;-84
2023/12/19 06:56:42;;;;;;;5.33;4.00;;;-0.80;99.90;;;;;;5007267;28;20182;-84
2023/12/19 06:59:08;;;;;;;7.70;2.93;;;-0.60;99.90;;;;;;5012254;28;20171;-84
2023/12/19 07:01:33;;;;;;;7.10;4.70;;;-0.60;99.90;;;;;;5001836;28;20274;-84
2023/12/19 07:03:59;;;;;;;8.43;6.40;;;-0.50;99.90;;;;;;5007230;28;20872;-84
2023/12/19 07:06:25;;;;;;;7.33;3.47;;;-0.50;99.90;;;;;;5013385;28;20183;-84
2023/12/19 07:08:50;;;;;;;9.57;4.37;;;-0.30;99.90;;;;;;5005295;28;20239;-84
2023/12/19 07:11:16;;;;;;;9.97;4.20;;;-0.10;99.90;;;;;;5007704;28;20281;-85
2023/12/19 07:13:43;;;;;;;6.38;4.15;;;-0.10;99.90;;;;;;4990229;28;20309;-84
2023/12/19 07:16:18;;;;;;;3.95;2.83;;;-0.10;99.90;;;;;;4998491;28;20438;-84
2023/12/19 07:18:45;;;;;;;4.15;3.05;;;-0.20;99.90;;;;;;4999402;28;20179;-84
2023/12/19 07:21:18;;;;;;;4.50;2.67;;;-0.20;99.90;;;;;;5006852;28;20336;-84
2023/12/19 07:23:44;;;;;;;8.60;3.83;;;-0.20;99.90;;;;;;5015134;28;20274;-84
2023/12/19 07:26:22;;;;;;;5.83;4.30;;;-0.10;99.90;;;;;;4990314;28;20235;-84
2023/12/19 07:28:52;;;;;;;6.47;3.30;;;0.00;99.90;;;;;;5011735;28;20187;-84
2023/12/19 07:31:25;;;;;;;3.45;3.08;;;0.00;99.90;;;;;;5007687;28;20390;-84
2023/12/19 07:34:01;;;;;;;7.78;3.67;;;0.00;99.90;;;;;;5007213;28;20814;-84
2023/12/19 07:36:27;;;;;;;7.97;5.05;;;0.00;99.90;;;;;;5008135;28;20565;-84
2023/12/19 07:38:53;;;;;;;14.52;5.80;;;0.00;99.90;;;;;;4992902;28;20190;-83
2023/12/19 07:41:20;;;;;;;8.57;2.90;;;0.00;99.90;;;;;;5007867;28;20183;-84
2023/12/19 07:43:46;;;;;;;7.97;3.95;;;0.10;99.90;;;;;;4995424;28;20515;-84
2023/12/19 07:46:12;;;;;;;7.30;3.60;;;0.10;99.90;;;;;;4991282;28;20821;-83
2023/12/19 07:48:38;;;;;;;6.68;2.97;;;0.20;99.90;;;;;;5007281;28;21276;-86
2023/12/19 07:51:03;;;;;;;6.47;3.10;;;0.20;99.90;;;;;;4991121;28;20194;-84
2023/12/19 07:53:32;;;;;;;11.77;4.30;;;0.90;99.90;;;;;;5011065;28;20188;-84
2023/12/19 07:56:00;;;;;;;9.05;3.28;;;0.30;99.90;;;;;;5010018;28;20225;-84
2023/12/19 07:58:26;;;;;;;9.25;4.20;;;0.30;99.90;;;;;;5009301;28;20202;-83
2023/12/19 08:00:52;;;;;;;2.95;2.70;;;0.50;99.90;;;;;;4993880;28;20257;-84
2023/12/19 08:03:18;;;;;;;3.30;2.30;;;0.40;99.90;;;;;;5010735;28;20232;-84
2023/12/19 08:05:50;;;;;;;10.73;2.77;;;0.30;99.90;;;;;;5010441;28;20186;-84
2023/12/19 08:08:19;;;;;;;3.85;3.45;;;0.20;99.90;;;;;;5007311;28;20281;-86
2023/12/19 08:10:45;;;;;;;5.43;3.03;;;0.30;99.90;;;;;;5008845;28;20223;-84
2023/12/19 08:13:11;;;;;;;6.28;2.42;;;0.30;99.90;;;;;;5010463;28;20194;-86
2023/12/19 08:15:37;;;;;;;3.95;2.53;;;0.40;99.90;;;;;;4993637;28;20178;-83
2023/12/19 08:18:02;;;;;;;5.70;3.43;;;0.90;99.90;;;;;;5009460;28;20190;-84
2023/12/19 08:20:28;;;;;;;4.33;3.90;;;1.90;99.90;;;;;;5010746;28;20291;-84
2023/12/19 08:22:54;;;;;;;7.67;2.93;;;3.10;99.90;;;;;;5011352;28;20446;-84
2023/12/19 08:25:20;;;;;;;14.90;6.13;;;4.00;99.90;;;;;;4993510;28;20297;-84
2023/12/19 08:27:46;;;;;;;13.10;5.95;;;4.30;99.90;;;;;;5010262;28;20166;-84
2023/12/19 08:30:12;;;;;;;15.53;6.27;;;4.70;99.90;;;;;;5008988;28;20188;-84
2023/12/19 08:32:38;;;;;;;21.50;7.00;;;5.30;99.90;;;;;;5010645;28;20282;-84
2023/12/19 08:35:05;;;;;;;14.00;6.28;;;5.80;99.90;;;;;;5009392;28;20233;-84
2023/12/19 08:37:31;;;;;;;7.28;4.93;;;5.80;99.90;;;;;;4989901;28;20191;-84
2023/12/19 08:39:57;;;;;;;21.27;9.33;;;5.60;99.90;;;;;;5010758;28;20211;-84
2023/12/19 08:42:23;;;;;;;12.00;5.80;;;5.60;99.90;;;;;;5011303;28;20187;-84
2023/12/19 08:44:53;;;;;;;15.75;6.55;;;5.70;99.90;;;;;;5010489;28;20339;-84
2023/12/19 08:47:18;;;;;;;15.68;7.45;;;5.60;99.90;;;;;;4992045;28;20187;-84
2023/12/19 08:49:44;;;;;;;15.07;7.73;;;5.30;99.90;;;;;;5010744;28;20744;-84
2023/12/19 08:52:10;;;;;;;12.27;6.33;;;5.40;99.90;;;;;;4997195;28;20206;-86
2023/12/19 08:54:36;;;;;;;10.32;4.95;;;5.40;99.90;;;;;;4994975;28;20214;-86
2023/12/19 08:57:02;;;;;;;12.57;5.90;;;5.90;99.90;;;;;;4994500;28;20193;-86
2023/12/19 08:59:28;;;;;;;10.77;6.30;;;6.70;99.90;;;;;;5010251;28;20942;-86
2023/12/19 09:01:55;;;;;;;11.43;5.80;;;7.40;99.90;;;;;;5009680;28;20452;-85
2023/12/19 09:04:21;;;;;;;10.13;5.10;;;8.50;99.90;;;;;;5010029;28;20232;-83
2023/12/19 09:06:50;;;;;;;10.75;6.07;;;8.90;99.90;;;;;;5005872;28;20290;-84
2023/12/19 09:09:16;;;;;;;10.95;5.13;;;8.70;99.90;;;;;;5009202;28;20213;-84
2023/12/19 09:11:42;;;;;;;6.07;4.20;;;8.90;99.90;;;;;;5009560;28;20194;-84
2023/12/19 09:14:08;;;;;;;10.40;4.68;;;9.10;99.90;;;;;;5009004;28;20225;-83
2023/12/19 09:16:33;;;;;;;9.47;4.63;;;9.50;99.90;;;;;;4994043;28;20602;-84
2023/12/19 09:19:00;;;;;;;3.93;2.90;;;9.30;99.90;;;;;;5009854;28;20523;-84
2023/12/19 09:21:26;;;;;;;4.90;2.08;;;8.30;99.90;;;;;;5006104;28;20720;-84
2023/12/19 09:23:52;;;;;;;8.20;3.60;;;8.10;99.90;;;;;;4991330;28;20297;-84
2023/12/19 09:26:18;;;;;;;5.38;3.20;;;7.50;99.90;;;;;;5011024;28;20224;-84
2023/12/19 09:28:44;;;;;;;7.28;3.45;;;7.30;99.90;;;;;;4991679;28;20198;-84
2023/12/19 09:31:11;;;;;;;5.33;3.33;;;6.90;99.90;;;;;;4993703;28;20211;-84
2023/12/19 09:33:38;;;;;;;4.80;3.08;;;6.40;99.90;;;;;;5005485;28;20217;-85
2023/12/19 09:36:21;;;;;;;4.90;3.35;;;5.00;99.90;;;;;;4998461;28;20675;-85
2023/12/19 09:38:47;;;;;;;4.55;2.85;;;3.40;99.90;;;;;;4988999;28;20191;-85
2023/12/19 09:41:13;;;;;;;8.47;3.73;;;3.20;99.90;;;;;;5009817;28;20258;-84
2023/12/19 09:43:39;;;;;;;2.65;2.42;;;3.30;99.90;;;;;;4997653;28;20214;-84
2023/12/19 09:46:05;;;;;;;10.43;4.60;;;3.00;99.90;;;;;;4993498;28;20190;-85
2023/12/19 09:48:35;;;;;;;4.07;1.80;;;2.80;99.90;;;;;;5009497;28;20441;-85
2023/12/19 09:51:03;;;;;;;2.75;2.42;;;2.60;99.90;;;;;;4993861;28;20222;-85
2023/12/19 09:53:33;;;;;;;9.35;4.05;;;2.60;99.90;;;;;;5008458;28;20209;-84
2023/12/19 09:56:00;;;;;;;10.40;4.22;;;2.60;99.90;;;;;;5007167;28;20250;-85
2023/12/19 09:58:28;;;;;;;8.23;3.67;;;2.50;99.90;;;;;;5000563;28;20190;-85
2023/12/19 10:00:58;;;;;;;8.48;2.35;;;2.40;99.90;;;;;;5018075;28;20265;-84
2023/12/19 10:03:27;;;;;;;4.07;1.88;;;2.30;99.90;;;;;;4984543;28;20187;-85
2023/12/19 10:05:53;;;;;;;2.35;2.15;;;2.20;99.90;;;;;;4980546;28;20205;-84
2023/12/19 10:08:19;;;;;;;3.33;2.97;;;2.20;99.90;;;;;;4980724;28;20647;-84
2023/12/19 10:10:53;;;;;;;3.10;2.17;;;2.20;99.90;;;;;;4994495;28;20473;-85
2023/12/19 10:13:35;;;;;;;2.00;1.60;;;2.40;99.90;;;;;;4998372;28;20633;-84
2023/12/19 10:16:04;;;;;;;1.45;1.00;;;2.70;99.90;;;;;;4994711;28;20199;-84
2023/12/19 10:18:29;;;;;;;9.90;3.97;;;2.50;99.90;;;;;;4996939;28;20713;-84
2023/12/19 10:21:13;;;;;;;7.13;2.83;;;2.50;99.90;;;;;;5005868;28;20210;-84
2023/12/19 10:23:40;;;;;;;4.78;2.45;;;2.60;99.90;;;;;;4997872;28;20441;-84
2023/12/19 10:26:06;;;;;;;7.25;2.03;;;2.60;99.90;;;;;;5003062;28;20183;-84
2023/12/19 10:28:36;;;;;;;1.27;0.90;;;2.60;99.90;;;;;;5017638;28;20175;-84
2023/12/19 10:31:14;;;;;;;9.20;4.38;;;2.40;99.90;;;;;;5013092;28;20231;-84
2023/12/19 10:33:45;;;;;;;1.77;1.40;;;2.20;99.90;;;;;;4998654;28;20599;-84
2023/12/19 10:36:31;;;;;;;3.47;2.30;;;2.20;99.90;;;;;;4999722;28;20170;-84
2023/12/19 10:38:58;;;;;;;2.10;1.05;;;2.20;99.90;;;;;;5017409;28;20257;-84
2023/12/19 10:41:25;;;;;;;4.15;2.30;;;2.30;99.90;;;;;;5009833;28;20191;-85
2023/12/19 10:43:53;;;;;;;6.18;1.30;;;2.30;99.90;;;;;;5002511;28;20206;-85
2023/12/19 10:46:24;;;;;;;6.78;3.55;;;2.30;99.90;;;;;;5015164;28;20178;-86
2023/12/19 10:48:54;;;;;;;3.65;1.60;;;2.30;99.90;;;;;;4997549;28;20152;-86
2023/12/19 10:51:27;;;;;;;4.68;1.75;;;2.40;99.90;;;;;;4997439;28;20237;-86
2023/12/19 10:53:58;;;;;;;3.83;2.22;;;2.30;99.90;;;;;;4989466;28;20202;-86
2023/12/19 10:56:25;;;;;;;6.45;2.63;;;2.30;99.90;;;;;;5007365;28;20181;-86
2023/12/19 10:58:58;;;;;;;1.92;1.00;;;2.40;99.90;;;;;;5009595;28;20182;-86
2023/12/19 11:01:26;;;;;;;2.65;1.25;;;2.50;99.90;;;;;;5006691;28;20876;-86
2023/12/19 11:04:07;;;;;;;4.50;2.22;;;2.70;99.90;;;;;;5014580;28;20198;-86
2023/12/19 11:06:39;;;;;;;4.45;3.17;;;2.90;99.90;;;;;;5002288;28;20174;-86
2023/12/19 11:09:08;;;;;;;5.15;1.30;;;2.90;99.90;;;;;;4999158;28;20183;-85
2023/12/19 11:11:37;;;;;;;8.40;2.13;;;2.90;99.90;;;;;;5016019;28;20199;-85
2023/12/19 11:14:07;;;;;;;6.90;2.35;;;2.60;99.90;;;;;;5014023;28;20214;-85
2023/12/19 11:16:41;;;;;;;5.57;2.00;;;2.70;99.90;;;;;;4999714;28;20182;-84
2023/12/19 11:19:19;;;;;;;5.05;2.42;;;2.90;99.90;;;;;;4998380;28;20186;-85
2023/12/19 11:21:55;;;;;;;3.13;2.30;;;3.30;99.90;;;;;;4991883;28;20220;-85
2023/12/19 11:24:33;;;;;;;2.72;2.53;;;3.50;99.90;;;;;;5015684;28;20213;-85
2023/12/19 11:27:05;;;;;;;4.60;3.10;;;3.60;99.90;;;;;;5014582;28;20246;-85
2023/12/19 11:29:53;;;;;;;3.88;2.22;;;3.70;99.90;;;;;;5015994;28;20212;-85
2023/12/19 11:32:28;;;;;;;6.28;3.08;;;3.80;99.90;;;;;;4988671;28;20195;-84
2023/12/19 11:34:54;;;;;;;1.90;1.50;;;4.30;99.90;;;;;;4991846;28;20213;-85
2023/12/19 11:37:21;;;;;;;3.42;1.80;;;4.70;99.90;;;;;;4995678;28;20178;-85
2023/12/19 11:39:47;;;;;;;5.28;1.77;;;4.40;99.90;;;;;;5001286;28;20235;-85
2023/12/19 11:42:52;;;;;;;5.90;2.10;;;4.50;99.90;;;;;;5000511;28;20197;-86
2023/12/19 11:45:17;;;;;;;4.38;2.22;;;4.50;99.90;;;;;;4988005;28;20214;-86
2023/12/19 11:47:49;;;;;;;2.87;1.67;;;4.40;99.90;;;;;;5005149;28;20236;-86
2023/12/19 11:50:40;;;;;;;2.22;1.67;;;4.30;99.90;;;;;;4990357;28;20815;-86
2023/12/19 11:53:06;;;;;;;6.25;2.70;;;4.40;99.90;;;;;;5006133;28;21001;-86
2023/12/19 11:55:32;;;;;;;1.60;1.30;;;4.10;99.90;;;;;;5005782;28;20233;-87
2023/12/19 11:58:11;;;;;;;8.20;3.80;;;3.90;99.90;;;;;;5007897;28;20187;-86
2023/12/19 12:00:37;;;;;;;4.53;1.95;;;3.90;99.90;;;;;;4991988;28;20183;-87
2023/12/19 12:03:10;;;;;;;3.67;1.50;;;4.00;99.90;;;;;;5008007;28;20238;-86
2023/12/19 12:05:36;;;;;;;1.50;1.27;;;3.90;99.90;;;;;;5009164;28;20210;-86
2023/12/19 12:08:03;;;;;;;7.00;4.15;;;3.50;99.90;;;;;;5010847;28;20193;-87
2023/12/19 12:10:29;;;;;;;4.82;2.85;;;3.50;99.90;;;;;;5011348;28;20190;-87
2023/12/19 12:13:01;;;;;;;5.75;2.70;;;3.60;99.90;;;;;;4992686;28;20206;-85
2023/12/19 12:15:27;;;;;;;4.15;1.90;;;3.90;99.90;;;;;;5008374;28;20214;-86
2023/12/19 12:18:04;;;;;;;5.13;2.10;;;4.00;99.90;;;;;;5004867;28;20936;-87
2023/12/19 12:20:33;;;;;;;3.50;2.25;;;4.40;99.90;;;;;;5008537;28;20182;-87
2023/12/19 12:22:59;;;;;;;3.92;2.58;;;4.40;99.90;;;;;;5010635;28;20273;-86
2023/12/19 12:25:25;;;;;;;5.75;2.85;;;4.60;99.90;;;;;;5008478;28;20586;-86
2023/12/19 12:27:55;;;;;;;7.27;2.53;;;4.70;99.90;;;;;;5020557;28;20190;-86
2023/12/19 12:30:25;;;;;;;5.65;2.50;;;4.60;99.90;;;;;;5010960;28;20167;-86
2023/12/19 12:32:51;;;;;;;8.52;2.63;;;4.70;99.90;;;;;;4994049;28;20301;-86
2023/12/19 12:35:36;;;;;;;4.03;2.92;;;4.70;99.90;;;;;;5010272;28;20309;-86
2023/12/19 12:38:06;;;;;;;3.60;2.00;;;4.90;99.90;;;;;;5005806;28;20947;-87
2023/12/19 12:40:32;;;;;;;4.97;2.53;;;4.80;99.90;;;;;;5010695;28;20181;-86
2023/12/19 12:43:39;;;;;;;5.28;3.33;;;5.00;99.90;;;;;;4996342;28;20649;-86
2023/12/19 12:46:12;;;;;;;2.60;1.38;;;5.00;99.90;;;;;;4997015;28;20297;-86
2023/12/19 12:48:45;;;;;;;6.93;2.67;;;5.10;99.90;;;;;;5013207;28;20185;-86
2023/12/19 12:51:11;;;;;;;4.28;3.85;;;5.00;99.90;;;;;;5012611;28;20202;-86
2023/12/19 12:53:37;;;;;;;5.33;2.13;;;5.10;99.90;;;;;;4994111;28;20514;-86
2023/12/19 12:56:16;;;;;;;1.75;1.48;;;4.80;99.90;;;;;;5010425;28;20445;-86